EDDF/FRA METAR and TAF weather

Enter ICAO airport designator
Station Type Date Time Source
EDDF METAR 2018/12/12 22:50 UTC NOAA

EDDF 122250Z 02005KT 9999 BKN042 03/00 Q1022 NOSIG


Station Type Date Time Source
EDDF Decoded METAR 2018/12/12 22:50 UTC NOAA

Frankfurt / M-Flughafen, Germany (EDDF) 50-03N 008-36E 113M
Dec 12, 2018 - 05:50 PM EST / 2018.12.12 2250 UTC
Wind: from the NNE (020 degrees) at 6 MPH (5 KT):0
Visibility: greater than 7 mile(s):0
Sky conditions: mostly cloudy
Temperature: 37 F (3 C)
Dew Point: 32 F (0 C)
Relative Humidity: 80%
Pressure (altimeter): 30.18 in. Hg (1022 hPa)
ob: EDDF 122250Z 02005KT 9999 BKN042 03/00 Q1022 NOSIG
cycle: 23

Station Type Date Time Source
EDDF TAF 2018/12/12 18:29 UTC NOAA

TAF EDDF 121700Z 1218/1324 04008KT 9999 SCT045
TEMPO 1218/1309 BKN040
TEMPO 1312/1318 05013KT


Example: see airport list